Terminal Aerodrome Forecast
Issued by NWS

Home | Current Version | Previous Version | Text Only | Print | Product List | Glossary On
Versions: 1 2 3 4 5 6 7 8 9 10 11 12 13 14 15 16 17 18 19 20 21 22 23 24 25 26 27 28 29 30 31 32 33 34 35 36 37 38
000
FTAK31 PANC 222335
TAFAIL
TAF
PAIL 222335Z 2300/2324 27012G20KT P6SM SCT030 BKN050
     FM230800 31007KT P6SM FEW030 BKN100
     FM231500 VRB06KT P6SM VCFG SCT003 SCT100
     FM232100 09008KT P6SM SCT050 BKN080=

USA.gov is the U.S. government's official web portal to all federal, state and local government web resources and services.